Time;durP1;ratioP1;P1;durP2;ratioP2;P2;SDS_P1;SDS_P2;PMS_P1;PMS_P2;Temp;Humidity;BMP_temperature;BMP_pressure;BME280_temperature;BME280_humidity;BME280_pressure;Samples;Min_cycle;Max_cycle;Signal;HPM_P1;HPM_P2
2021/05/25 05:48:00;;;;;;;2.80;1.20;;;16.10;50.00;;;;;;5062867;28;20398;-57
2021/05/25 05:50:26;;;;;;;4.35;1.20;;;11.90;63.10;;;;;;5065925;28;20036;-56
2021/05/25 05:52:51;;;;;;;4.95;1.00;;;11.00;66.60;;;;;;5066300;28;20027;-59
2021/05/25 05:55:18;;;;;;;3.83;1.40;;;10.60;66.60;;;;;;5066316;28;20490;-57
2021/05/25 05:57:46;;;;;;;2.70;1.00;;;10.50;67.80;;;;;;5065991;28;20033;-57
2021/05/25 06:00:12;;;;;;;3.20;1.30;;;10.50;68.00;;;;;;5066021;28;20070;-58
2021/05/25 06:02:38;;;;;;;3.35;1.80;;;10.50;69.20;;;;;;5064987;28;20589;-58
2021/05/25 06:05:04;;;;;;;5.00;2.00;;;10.50;69.80;;;;;;5066003;28;20031;-58
2021/05/25 06:07:30;;;;;;;2.15;1.10;;;10.60;70.60;;;;;;5065586;28;20025;-57
2021/05/25 06:09:57;;;;;;;3.80;1.20;;;10.60;70.00;;;;;;5065592;28;20078;-57
2021/05/25 06:12:23;;;;;;;3.42;1.40;;;10.50;69.90;;;;;;5065618;28;20079;-57
2021/05/25 06:14:49;;;;;;;6.47;1.25;;;10.30;72.60;;;;;;5064244;28;20025;-57
2021/05/25 06:17:14;;;;;;;3.50;1.30;;;10.20;72.50;;;;;;5065536;28;20028;-58
2021/05/25 06:19:40;;;;;;;4.90;1.63;;;10.10;73.70;;;;;;5065739;28;20025;-57
2021/05/25 06:22:05;;;;;;;3.00;1.45;;;10.20;73.20;;;;;;5065198;28;20021;-57
2021/05/25 06:24:31;;;;;;;6.63;3.22;;;10.10;74.00;;;;;;5065264;28;20036;-58
2021/05/25 06:26:56;;;;;;;7.10;2.90;;;10.10;75.80;;;;;;5065054;28;20025;-57
2021/05/25 06:29:22;;;;;;;3.53;1.70;;;10.10;74.80;;;;;;5060305;28;20017;-58
2021/05/25 06:31:47;;;;;;;7.40;1.70;;;10.10;74.70;;;;;;5051364;28;20090;-58
2021/05/25 06:34:13;;;;;;;2.95;1.60;;;10.20;75.30;;;;;;5052364;28;20427;-57
2021/05/25 06:36:38;;;;;;;3.03;1.60;;;10.30;75.00;;;;;;5050408;28;20100;-57
2021/05/25 06:39:04;;;;;;;6.05;1.60;;;10.30;74.90;;;;;;5046632;28;20036;-57
2021/05/25 06:41:30;;;;;;;5.40;1.35;;;10.30;73.10;;;;;;5042554;28;20029;-58
2021/05/25 06:43:55;;;;;;;2.97;1.60;;;10.10;72.70;;;;;;5047130;28;20032;-57
2021/05/25 06:46:21;;;;;;;4.30;1.40;;;10.00;74.00;;;;;;5051889;28;20037;-58
2021/05/25 06:48:46;;;;;;;3.30;1.60;;;10.00;75.50;;;;;;5052694;28;20442;-57
2021/05/25 06:51:12;;;;;;;5.18;1.80;;;10.00;76.30;;;;;;5066583;28;20051;-58
2021/05/25 06:53:37;;;;;;;4.15;1.85;;;10.00;75.50;;;;;;5071580;28;20056;-59
2021/05/25 06:56:03;;;;;;;3.83;1.70;;;10.10;75.80;;;;;;5070423;28;20024;-57
2021/05/25 06:58:29;;;;;;;2.95;1.70;;;10.10;75.50;;;;;;5062096;28;20028;-59
2021/05/25 07:00:54;;;;;;;8.45;1.52;;;10.20;75.40;;;;;;5058078;28;20035;-57
2021/05/25 07:03:20;;;;;;;3.47;1.65;;;10.30;74.30;;;;;;5054736;28;20183;-58
2021/05/25 07:05:45;;;;;;;2.13;1.30;;;10.30;74.30;;;;;;5057885;28;20024;-58
2021/05/25 07:08:11;;;;;;;2.35;1.20;;;10.40;73.30;;;;;;5058204;28;20261;-57
2021/05/25 07:10:36;;;;;;;1.48;0.90;;;10.40;71.80;;;;;;5056418;28;20052;-58
2021/05/25 07:13:02;;;;;;;3.13;1.75;;;10.50;71.00;;;;;;5058617;28;20053;-58
2021/05/25 07:15:28;;;;;;;2.83;1.40;;;10.50;72.10;;;;;;5059101;28;20070;-57
2021/05/25 07:17:56;;;;;;;1.75;1.17;;;10.30;70.50;;;;;;5061066;28;20382;-58
2021/05/25 07:20:26;;;;;;;2.50;1.08;;;10.30;70.10;;;;;;5063788;28;20020;-57
2021/05/25 07:22:54;;;;;;;8.93;1.75;;;10.20;71.40;;;;;;5058619;28;20476;-58
2021/05/25 07:25:20;;;;;;;1.33;1.08;;;10.30;71.10;;;;;;5059899;28;20043;-58
2021/05/25 07:27:46;;;;;;;2.33;1.02;;;10.20;71.20;;;;;;5055882;28;20032;-58
2021/05/25 07:30:12;;;;;;;3.03;1.33;;;10.20;70.00;;;;;;5057126;28;20644;-57
2021/05/25 07:32:38;;;;;;;3.50;1.45;;;10.20;68.90;;;;;;5081531;28;20012;-58
2021/05/25 07:35:04;;;;;;;1.00;0.93;;;10.20;68.90;;;;;;5075905;28;20016;-57
2021/05/25 07:37:29;;;;;;;2.95;1.25;;;10.40;69.30;;;;;;5073859;28;20040;-57
2021/05/25 07:39:55;;;;;;;2.45;1.00;;;10.60;68.90;;;;;;5083260;28;20020;-57
2021/05/25 07:42:20;;;;;;;2.40;0.95;;;10.80;67.90;;;;;;5070024;28;20344;-56
2021/05/25 07:44:46;;;;;;;2.63;0.90;;;11.00;67.00;;;;;;5079684;28;20443;-57
2021/05/25 07:47:11;;;;;;;1.85;0.70;;;11.10;65.80;;;;;;5076780;28;20040;-56
2021/05/25 07:49:37;;;;;;;2.35;0.95;;;11.30;63.40;;;;;;5072525;28;20104;-56
2021/05/25 07:52:03;;;;;;;2.08;0.80;;;11.50;63.30;;;;;;5082975;28;20035;-57
2021/05/25 07:54:28;;;;;;;1.65;0.70;;;11.60;62.10;;;;;;5070446;28;20532;-57
2021/05/25 07:56:54;;;;;;;1.63;0.60;;;11.70;62.60;;;;;;5078450;28;20037;-57
2021/05/25 07:59:19;;;;;;;1.23;0.63;;;11.80;60.90;;;;;;5078214;28;20479;-57
2021/05/25 08:01:45;;;;;;;2.67;0.50;;;11.80;59.70;;;;;;5071079;28;20024;-57
2021/05/25 08:04:10;;;;;;;0.93;0.50;;;11.80;59.40;;;;;;5082722;28;20074;-57
2021/05/25 08:06:36;;;;;;;2.47;0.90;;;12.00;60.40;;;;;;5071455;28;20104;-57
2021/05/25 08:09:03;;;;;;;0.60;0.60;;;12.00;61.00;;;;;;5076216;28;20559;-57
2021/05/25 08:11:28;;;;;;;2.35;0.70;;;12.10;60.10;;;;;;5078679;28;20024;-57
2021/05/25 08:13:54;;;;;;;1.35;0.88;;;12.00;59.40;;;;;;5069496;28;20027;-58
2021/05/25 08:16:23;;;;;;;1.75;0.98;;;11.80;59.40;;;;;;5081789;28;20103;-59
2021/05/25 08:19:06;;;;;;;0.93;0.88;;;11.70;61.30;;;;;;5073528;28;20238;-58
2021/05/25 08:21:32;;;;;;;0.80;0.70;;;11.60;61.80;;;;;;5065986;28;20108;-58
2021/05/25 08:23:57;;;;;;;1.95;0.93;;;11.40;61.30;;;;;;5058582;28;20420;-57
2021/05/25 08:26:26;;;;;;;1.85;1.05;;;11.40;62.80;;;;;;5054664;28;20480;-57
2021/05/25 08:28:52;;;;;;;1.80;1.25;;;11.40;62.40;;;;;;5056977;28;20848;-56
2021/05/25 08:31:17;;;;;;;1.50;1.33;;;11.70;62.50;;;;;;5056281;28;20537;-57
2021/05/25 08:33:43;;;;;;;3.95;1.20;;;11.60;61.90;;;;;;5057417;28;20024;-58
2021/05/25 08:36:09;;;;;;;4.88;1.70;;;11.70;61.40;;;;;;5060502;28;20036;-58
2021/05/25 08:38:35;;;;;;;5.88;2.75;;;11.80;62.10;;;;;;5065528;28;20033;-57
2021/05/25 08:41:03;;;;;;;5.93;3.05;;;11.80;61.60;;;;;;5057499;28;20028;-57
2021/05/25 08:43:28;;;;;;;3.33;2.33;;;11.90;62.10;;;;;;5058605;28;20021;-57
2021/05/25 08:45:54;;;;;;;4.65;1.95;;;11.90;61.90;;;;;;5055368;28;20045;-57
2021/05/25 08:48:20;;;;;;;2.97;2.30;;;12.00;62.10;;;;;;5057510;28;20020;-57
2021/05/25 08:50:45;;;;;;;4.28;2.33;;;12.10;61.90;;;;;;5055744;28;20666;-55
2021/05/25 08:53:11;;;;;;;3.78;2.20;;;12.10;61.10;;;;;;5056771;28;20025;-57
2021/05/25 08:55:37;;;;;;;2.53;2.03;;;12.70;61.30;;;;;;5074139;28;20387;-57
2021/05/25 08:58:05;;;;;;;3.10;2.33;;;13.30;58.60;;;;;;5087911;28;20020;-57
2021/05/25 09:00:30;;;;;;;3.50;2.17;;;13.20;58.40;;;;;;5089534;28;20020;-58
2021/05/25 09:02:56;;;;;;;3.13;2.15;;;13.30;58.40;;;;;;5089280;28;20023;-57
2021/05/25 09:05:22;;;;;;;3.53;2.08;;;13.20;57.80;;;;;;5089061;28;20478;-57
2021/05/25 09:07:49;;;;;;;2.28;2.00;;;13.20;58.80;;;;;;5089123;28;20023;-58
2021/05/25 09:10:49;;;;;;;1.90;1.63;;;13.40;57.80;;;;;;5089164;28;20031;-58
2021/05/25 09:13:21;;;;;;;3.72;2.00;;;13.40;57.50;;;;;;5089110;28;20474;-59
2021/05/25 09:15:48;;;;;;;3.90;2.40;;;13.30;57.80;;;;;;5089004;28;20020;-62
2021/05/25 09:18:15;;;;;;;2.13;1.90;;;13.30;57.70;;;;;;5089118;28;20028;-62
2021/05/25 09:20:43;;;;;;;4.18;2.22;;;13.40;57.00;;;;;;5088637;28;20153;-62
2021/05/25 09:23:10;;;;;;;3.03;2.00;;;13.90;57.10;;;;;;5088862;28;20351;-61
2021/05/25 09:25:36;;;;;;;5.45;1.58;;;14.40;56.10;;;;;;5089061;28;20020;-61
2021/05/25 09:28:08;;;;;;;4.85;1.75;;;14.60;55.20;;;;;;5079052;28;20056;-61
2021/05/25 09:30:34;;;;;;;1.60;1.50;;;14.40;54.70;;;;;;5054601;28;20032;-62
2021/05/25 09:33:08;;;;;;;3.13;1.60;;;14.20;55.30;;;;;;5069956;28;20020;-61
2021/05/25 09:35:35;;;;;;;5.40;1.67;;;13.80;55.80;;;;;;5067795;28;20021;-64
2021/05/25 09:38:11;;;;;;;2.35;1.30;;;13.60;57.10;;;;;;5080152;28;20092;-64
2021/05/25 09:40:39;;;;;;;5.25;2.25;;;14.10;57.80;;;;;;5073365;28;20013;-62
2021/05/25 09:43:21;;;;;;;2.72;1.73;;;14.70;56.70;;;;;;5070370;28;20098;-61
2021/05/25 09:45:54;;;;;;;3.60;1.60;;;15.10;53.90;;;;;;5062435;28;20021;-62
2021/05/25 09:48:19;;;;;;;3.40;2.60;;;15.00;53.80;;;;;;5059060;28;20255;-62
2021/05/25 09:50:45;;;;;;;6.25;2.10;;;14.60;56.90;;;;;;5054598;28;20050;-61
2021/05/25 09:53:12;;;;;;;8.35;2.60;;;14.40;57.50;;;;;;5056365;28;20021;-61
2021/05/25 09:55:56;;;;;;;4.20;1.50;;;13.90;62.20;;;;;;5052484;28;20021;-61
2021/05/25 09:58:23;;;;;;;4.35;1.40;;;12.80;64.10;;;;;;5053096;28;20387;-62
2021/05/25 10:00:49;;;;;;;4.80;1.50;;;12.00;68.00;;;;;;5074849;28;20029;-62
2021/05/25 10:03:19;;;;;;;3.97;1.90;;;11.70;68.90;;;;;;5069864;28;20096;-62
2021/05/25 10:05:52;;;;;;;7.75;1.90;;;11.60;69.40;;;;;;5080163;28;20043;-64
2021/05/25 10:08:21;;;;;;;4.07;1.90;;;11.60;71.80;;;;;;5072089;28;20096;-67
2021/05/25 10:10:46;;;;;;;2.58;1.95;;;11.60;71.20;;;;;;5073154;28;20032;-67
2021/05/25 10:13:12;;;;;;;6.55;2.08;;;11.60;73.10;;;;;;5079210;28;20021;-67
2021/05/25 10:15:38;;;;;;;2.17;1.92;;;11.80;70.90;;;;;;5061455;28;20103;-66
2021/05/25 10:20:33;;;;;;;4.22;1.75;;;12.10;68.80;;;;;;5057626;28;20049;-67
2021/05/25 10:22:59;;;;;;;2.35;1.05;;;12.40;67.50;;;;;;5072404;28;20028;-67
2021/05/25 10:25:27;;;;;;;2.75;1.10;;;12.80;65.00;;;;;;5068094;28;20028;-67
2021/05/25 10:27:52;;;;;;;3.30;1.45;;;13.20;62.80;;;;;;5050364;28;20463;-66
2021/05/25 10:30:21;;;;;;;4.82;1.75;;;13.70;63.20;;;;;;5075660;28;20029;-66
2021/05/25 10:32:47;;;;;;;5.10;1.88;;;14.50;62.40;;;;;;5075382;28;20020;-67
2021/05/25 10:35:17;;;;;;;5.55;1.90;;;14.60;57.50;;;;;;5073592;28;20028;-66
2021/05/25 10:38:05;;;;;;;3.15;2.22;;;14.90;59.40;;;;;;5084892;28;20355;-67
2021/05/25 10:40:40;;;;;;;4.82;2.75;;;14.80;60.50;;;;;;5076580;28;20025;-68
2021/05/25 10:43:44;;;;;;;6.13;3.35;;;14.80;59.70;;;;;;5074883;28;20154;-61
2021/05/25 10:46:10;;;;;;;6.15;3.47;;;14.80;58.60;;;;;;5058706;28;20040;-59
2021/05/25 10:51:51;;;;;;;4.32;3.22;;;14.30;58.90;;;;;;5070636;28;20530;-58
2021/05/25 10:54:31;;;;;;;5.38;2.97;;;14.20;60.00;;;;;;5070394;28;20032;-59
2021/05/25 10:57:00;;;;;;;5.63;2.30;;;13.70;58.60;;;;;;5052552;28;20033;-58
2021/05/25 10:59:25;;;;;;;8.88;3.50;;;13.30;60.60;;;;;;5052870;28;20491;-58
2021/05/25 11:01:54;;;;;;;6.05;2.83;;;13.00;62.80;;;;;;5058776;28;20033;-57
2021/05/25 11:04:24;;;;;;;5.50;3.00;;;12.80;62.40;;;;;;5046832;28;20558;-56
2021/05/25 11:06:50;;;;;;;7.82;2.78;;;12.60;61.50;;;;;;5051404;28;20028;-58
2021/05/25 11:09:22;;;;;;;4.28;2.80;;;12.50;63.30;;;;;;5050992;28;20025;-58
2021/05/25 11:12:08;;;;;;;8.52;3.05;;;12.30;66.80;;;;;;5049722;28;20063;-58
2021/05/25 11:14:33;;;;;;;4.10;2.88;;;12.40;66.00;;;;;;5050702;28;20029;-62
2021/05/25 11:17:29;;;;;;;4.40;2.63;;;12.40;65.30;;;;;;5050348;28;20043;-58
2021/05/25 11:20:10;;;;;;;6.80;2.75;;;12.50;64.60;;;;;;5054220;28;20048;-59
2021/05/25 11:22:37;;;;;;;7.85;3.42;;;12.50;65.00;;;;;;5058524;28;20032;-58
2021/05/25 11:25:05;;;;;;;5.25;2.90;;;12.70;63.90;;;;;;5059229;28;20163;-59
2021/05/25 11:27:47;;;;;;;5.20;2.47;;;13.00;63.90;;;;;;5059716;28;20671;-58
2021/05/25 11:30:21;;;;;;;;;;;13.20;61.60;;;;;;5059833;28;20473;-59
2021/05/25 11:32:47;;;;;;;12.77;7.00;;;13.40;60.30;;;;;;5060294;28;20425;-58
2021/05/25 11:35:14;;;;;;;8.38;4.88;;;13.50;60.00;;;;;;5060402;28;20103;-59
2021/05/25 11:37:44;;;;;;;12.82;5.80;;;13.70;58.20;;;;;;5060035;28;20108;-59
2021/05/25 11:40:14;;;;;;;10.60;4.70;;;13.90;58.50;;;;;;5059810;28;20372;-58
2021/05/25 11:42:42;;;;;;;10.55;4.13;;;14.00;58.50;;;;;;5060704;28;20024;-58
2021/05/25 11:45:09;;;;;;;5.32;2.72;;;14.60;58.20;;;;;;5061187;28;20025;-57
2021/05/25 11:47:35;;;;;;;11.73;2.92;;;15.20;54.90;;;;;;5058540;28;20079;-59
2021/05/25 11:50:01;;;;;;;9.52;3.03;;;15.90;56.10;;;;;;5060538;28;20734;-59
2021/05/25 11:52:31;;;;;;;5.65;3.08;;;16.80;54.60;;;;;;5058899;28;20053;-59
2021/05/25 11:54:58;;;;;;;8.10;2.95;;;17.40;53.10;;;;;;5058992;28;20101;-58
2021/05/25 11:57:29;;;;;;;7.03;3.38;;;17.80;51.40;;;;;;5060240;28;20024;-58
2021/05/25 11:59:59;;;;;;;9.85;3.53;;;18.30;50.10;;;;;;5060597;28;20170;-60
2021/05/25 12:02:34;;;;;;;7.00;2.75;;;18.30;49.00;;;;;;5059527;28;20382;-59
2021/05/25 12:05:15;;;;;;;8.93;3.22;;;18.40;48.40;;;;;;5060622;28;20020;-59
2021/05/25 12:07:42;;;;;;;6.28;3.15;;;17.90;48.90;;;;;;5058160;28;20028;-59
2021/05/25 12:10:15;;;;;;;11.13;3.20;;;17.50;49.20;;;;;;5060045;28;20033;-59
2021/05/25 12:12:43;;;;;;;4.32;2.20;;;16.90;49.70;;;;;;5064724;28;20049;-59
2021/05/25 12:15:17;;;;;;;6.97;1.67;;;15.90;50.20;;;;;;5063805;28;20495;-59
2021/05/25 12:18:01;;;;;;;3.00;1.90;;;14.40;56.10;;;;;;5059536;28;20051;-58
2021/05/25 12:20:50;;;;;;;5.25;2.30;;;13.40;60.00;;;;;;5056419;28;20033;-58
2021/05/25 12:23:18;;;;;;;5.03;2.67;;;12.40;62.50;;;;;;5059382;28;20051;-59
2021/05/25 12:25:51;;;;;;;5.35;3.17;;;11.90;66.30;;;;;;5068413;28;20048;-58
2021/05/25 12:28:24;;;;;;;9.73;5.63;;;11.50;68.00;;;;;;5069941;28;20115;-59
2021/05/25 12:30:54;;;;;;;10.90;5.60;;;11.40;70.30;;;;;;5066212;28;20036;-60
2021/05/25 12:33:23;;;;;;;4.68;3.47;;;11.30;68.80;;;;;;5068704;28;20044;-59
2021/05/25 12:35:48;;;;;;;2.85;1.70;;;11.30;70.00;;;;;;5069070;28;20033;-59
2021/05/25 12:38:15;;;;;;;4.05;2.10;;;11.20;69.40;;;;;;5069153;28;20386;-59
2021/05/25 12:40:43;;;;;;;6.50;2.20;;;11.40;68.80;;;;;;5062893;28;20021;-59
2021/05/25 12:43:24;;;;;;;4.00;1.70;;;11.70;70.10;;;;;;5049511;28;20098;-59
2021/05/25 12:45:51;;;;;;;3.50;1.40;;;11.90;64.70;;;;;;5049046;28;20112;-58
2021/05/25 12:48:17;;;;;;;4.45;1.70;;;11.80;64.50;;;;;;5062558;28;20028;-58
2021/05/25 12:50:43;;;;;;;4.38;1.60;;;11.70;65.20;;;;;;5068098;28;20094;-58
2021/05/25 12:53:11;;;;;;;5.53;1.98;;;11.90;65.10;;;;;;5067835;28;20032;-58
2021/05/25 12:55:57;;;;;;;2.78;1.60;;;12.00;65.40;;;;;;5068640;28;20041;-59
2021/05/25 12:58:45;;;;;;;4.18;1.42;;;12.40;63.60;;;;;;5057357;28;20021;-58
2021/05/25 13:01:18;;;;;;;3.55;1.25;;;12.90;62.00;;;;;;5056878;28;20103;-58
2021/05/25 13:03:43;;;;;;;3.88;1.20;;;13.20;60.50;;;;;;5049032;28;20025;-59
2021/05/25 13:06:15;;;;;;;5.05;1.40;;;13.60;59.70;;;;;;5053085;28;20143;-62
2021/05/25 13:08:44;;;;;;;2.85;1.00;;;13.50;59.40;;;;;;5068918;28;20402;-62
2021/05/25 13:11:09;;;;;;;1.58;1.00;;;13.50;58.90;;;;;;5050914;28;20045;-61
2021/05/25 13:13:40;;;;;;;1.75;1.10;;;13.40;59.00;;;;;;5051634;28;20076;-62
2021/05/25 13:16:05;;;;;;;3.55;1.00;;;13.60;59.00;;;;;;5062859;28;20028;-63
2021/05/25 13:18:38;;;;;;;7.13;1.25;;;13.70;57.00;;;;;;5051519;28;20032;-63
2021/05/25 13:21:04;;;;;;;3.15;1.60;;;13.80;58.50;;;;;;5056139;28;20396;-61
2021/05/25 13:23:30;;;;;;;2.38;0.98;;;14.10;56.20;;;;;;5061587;28;20025;-62
2021/05/25 13:29:07;;;;;;;3.85;1.42;;;14.80;52.40;;;;;;5079250;28;20028;-61
2021/05/25 13:31:36;;;;;;;3.70;1.08;;;14.70;53.70;;;;;;5053732;28;20507;-65
2021/05/25 13:34:05;;;;;;;3.63;1.10;;;14.60;52.20;;;;;;5056510;28;20024;-64
2021/05/25 13:36:32;;;;;;;2.63;1.10;;;14.40;53.50;;;;;;5062301;28;20101;-65
2021/05/25 13:38:57;;;;;;;1.48;1.00;;;14.00;53.60;;;;;;5074701;28;20110;-62
2021/05/25 13:41:23;;;;;;;4.47;1.33;;;13.50;54.30;;;;;;5072548;28;20130;-63
2021/05/25 13:43:50;;;;;;;3.72;1.02;;;13.50;56.00;;;;;;5070859;28;20033;-62
2021/05/25 13:46:18;;;;;;;5.55;1.30;;;13.40;55.70;;;;;;5081401;28;20039;-62
2021/05/25 13:48:44;;;;;;;4.22;1.25;;;13.30;56.70;;;;;;5072146;28;20024;-62
2021/05/25 13:51:10;;;;;;;4.78;1.45;;;12.90;56.00;;;;;;5074083;28;20024;-63
2021/05/25 13:53:36;;;;;;;4.63;1.27;;;12.80;56.70;;;;;;5079976;28;20546;-63
2021/05/25 13:56:04;;;;;;;3.25;1.10;;;12.70;57.00;;;;;;5068164;28;20021;-63
2021/05/25 13:58:31;;;;;;;6.93;1.50;;;12.60;57.60;;;;;;5082564;28;20027;-63
2021/05/25 14:03:41;;;;;;;6.18;1.73;;;12.60;58.20;;;;;;5055267;28;20429;-63
2021/05/25 14:06:06;;;;;;;2.80;1.25;;;12.60;58.30;;;;;;5060050;28;20028;-62
2021/05/25 14:08:33;;;;;;;5.13;1.20;;;12.50;58.20;;;;;;5056199;28;20046;-59
2021/05/25 14:11:00;;;;;;;3.13;1.65;;;12.60;58.10;;;;;;5055918;28;20021;-60
2021/05/25 14:13:26;;;;;;;6.45;1.40;;;12.80;58.00;;;;;;5054725;28;20093;-57
2021/05/25 14:15:52;;;;;;;3.72;1.10;;;12.90;57.20;;;;;;5061038;28;20551;-57
2021/05/25 14:18:17;;;;;;;4.88;1.05;;;12.80;57.70;;;;;;5067459;28;20158;-57
2021/05/25 14:20:43;;;;;;;2.45;1.35;;;12.90;57.50;;;;;;5063648;28;20020;-57
2021/05/25 14:23:09;;;;;;;3.92;1.20;;;12.90;58.10;;;;;;5065477;28;20025;-56
2021/05/25 14:25:34;;;;;;;3.55;0.85;;;12.90;58.10;;;;;;5066173;28;20414;-56
2021/05/25 14:28:00;;;;;;;3.05;1.00;;;12.80;57.80;;;;;;5082228;28;20032;-57
2021/05/25 14:30:26;;;;;;;2.53;0.85;;;12.70;58.70;;;;;;5073015;28;20024;-56
2021/05/25 14:32:52;;;;;;;4.45;0.85;;;12.80;58.50;;;;;;5083504;28;20390;-56
2021/05/25 14:35:17;;;;;;;2.65;1.00;;;13.00;59.20;;;;;;5076556;28;20074;-60
2021/05/25 14:37:43;;;;;;;3.80;1.10;;;13.00;59.40;;;;;;5084062;28;20055;-60
2021/05/25 14:40:09;;;;;;;3.05;0.98;;;12.80;60.70;;;;;;5071400;28;20037;-60
2021/05/25 14:42:35;;;;;;;3.20;1.00;;;12.50;60.30;;;;;;5071503;28;20089;-61
2021/05/25 14:45:00;;;;;;;3.67;2.28;;;12.30;59.90;;;;;;5072186;28;20032;-59
2021/05/25 14:47:27;;;;;;;2.08;1.00;;;12.40;60.80;;;;;;5071036;28;20080;-60
2021/05/25 14:49:55;;;;;;;4.30;1.65;;;12.50;61.00;;;;;;5061992;28;20049;-57
2021/05/25 14:52:26;;;;;;;3.03;0.80;;;12.50;59.60;;;;;;5051784;28;20475;-57
2021/05/25 14:54:53;;;;;;;3.05;1.05;;;12.40;59.00;;;;;;5052106;28;20017;-57
2021/05/25 14:57:19;;;;;;;3.00;0.95;;;12.50;58.60;;;;;;5051889;28;20029;-57
2021/05/25 14:59:44;;;;;;;2.50;0.90;;;12.50;58.70;;;;;;5051502;28;20432;-58
2021/05/25 15:02:16;;;;;;;1.75;1.02;;;12.50;58.40;;;;;;5056517;28;20603;-59
2021/05/25 15:07:22;;;;;;;5.72;1.15;;;12.40;59.50;;;;;;5075369;28;20102;-58
2021/05/25 15:09:59;;;;;;;4.25;1.00;;;12.20;61.70;;;;;;5068973;28;20017;-58
2021/05/25 15:12:25;;;;;;;2.22;1.23;;;12.00;62.00;;;;;;5060882;28;20027;-58
2021/05/25 15:14:50;;;;;;;3.50;1.30;;;11.90;63.80;;;;;;5061849;28;20021;-57
2021/05/25 15:17:16;;;;;;;5.93;1.60;;;11.90;65.20;;;;;;5062102;28;20024;-61
2021/05/25 15:19:43;;;;;;;4.72;1.20;;;11.80;67.20;;;;;;5062841;28;20429;-57
2021/05/25 15:22:09;;;;;;;3.78;1.40;;;11.80;65.00;;;;;;5065347;28;20689;-58
2021/05/25 15:24:34;;;;;;;4.32;1.33;;;11.90;65.30;;;;;;5062245;28;20032;-58
2021/05/25 15:27:00;;;;;;;5.55;1.73;;;12.00;66.00;;;;;;5062745;28;20106;-58
2021/05/25 15:29:25;;;;;;;4.25;1.90;;;12.20;64.90;;;;;;5057520;28;20021;-59
2021/05/25 15:31:51;;;;;;;6.13;2.13;;;12.30;64.20;;;;;;5072513;28;20078;-59
2021/05/25 15:34:17;;;;;;;3.03;1.42;;;12.30;65.60;;;;;;5072010;28;20020;-58
2021/05/25 15:36:43;;;;;;;4.97;1.40;;;12.50;65.80;;;;;;5078839;28;20020;-59
2021/05/25 15:39:08;;;;;;;4.70;1.75;;;12.70;63.80;;;;;;5080307;28;20627;-57
2021/05/25 15:41:34;;;;;;;4.78;1.60;;;12.70;63.50;;;;;;5071436;28;20051;-58
2021/05/25 15:43:59;;;;;;;6.32;2.20;;;12.60;64.30;;;;;;5083967;28;20031;-59
2021/05/25 15:46:25;;;;;;;4.03;1.55;;;12.80;63.50;;;;;;5073382;28;20044;-57
2021/05/25 15:48:51;;;;;;;4.90;2.08;;;12.90;63.60;;;;;;5069249;28;20017;-58
2021/05/25 15:51:16;;;;;;;7.40;1.67;;;12.90;63.60;;;;;;5080657;28;20047;-59
2021/05/25 15:53:42;;;;;;;5.85;1.50;;;12.90;63.30;;;;;;5077001;28;20021;-58
2021/05/25 15:56:13;;;;;;;3.25;1.60;;;12.90;61.80;;;;;;5082753;28;20113;-60
2021/05/25 15:58:38;;;;;;;6.97;1.40;;;12.70;63.10;;;;;;5075276;28;20099;-60
2021/05/25 16:01:04;;;;;;;3.03;1.20;;;12.60;61.60;;;;;;5070946;28;20930;-61
2021/05/25 16:03:32;;;;;;;3.05;1.40;;;12.50;62.30;;;;;;5059899;28;20075;-59
2021/05/25 16:05:57;;;;;;;6.03;1.30;;;12.50;63.90;;;;;;5060551;28;20052;-60
2021/05/25 16:08:23;;;;;;;6.10;1.45;;;12.30;63.60;;;;;;5069946;28;20075;-59
2021/05/25 16:10:54;;;;;;;5.90;1.73;;;12.30;62.80;;;;;;5076807;28;20024;-58
2021/05/25 16:13:20;;;;;;;;;;;12.30;63.80;;;;;;5081360;28;20024;-59
2021/05/25 16:15:47;;;;;;;4.05;1.75;;;12.20;63.10;;;;;;5068402;28;19915;-58
2021/05/25 16:18:12;;;;;;;3.90;1.63;;;12.20;64.00;;;;;;5067961;28;20074;-59
2021/05/25 16:20:38;;;;;;;5.63;1.73;;;12.20;64.00;;;;;;5070370;28;20032;-58
2021/05/25 16:23:04;;;;;;;5.00;2.00;;;12.10;64.40;;;;;;5070271;28;20094;-58
2021/05/25 16:25:34;;;;;;;5.55;1.75;;;12.00;65.70;;;;;;5068870;28;20025;-57
2021/05/25 16:28:00;;;;;;;4.32;1.83;;;11.90;66.40;;;;;;5068574;28;20059;-58
2021/05/25 16:30:26;;;;;;;8.20;2.40;;;11.80;67.30;;;;;;5069399;28;20394;-58
2021/05/25 16:32:53;;;;;;;3.67;1.35;;;11.70;68.20;;;;;;5064302;28;20028;-59
2021/05/25 16:35:19;;;;;;;4.55;1.98;;;11.60;68.00;;;;;;5040738;28;20067;-58
2021/05/25 16:37:44;;;;;;;4.07;1.88;;;11.50;68.40;;;;;;5060035;28;20475;-58
2021/05/25 16:40:11;;;;;;;4.85;1.92;;;11.50;68.50;;;;;;5058379;28;20024;-58
2021/05/25 16:42:37;;;;;;;4.88;1.88;;;11.50;69.50;;;;;;5058422;28;20059;-57
2021/05/25 16:45:03;;;;;;;4.20;2.10;;;11.50;69.80;;;;;;5059832;28;20025;-58
2021/05/25 16:47:29;;;;;;;4.40;1.70;;;11.40;71.80;;;;;;5050386;28;20057;-57
2021/05/25 16:50:02;;;;;;;6.13;1.60;;;11.40;71.00;;;;;;5048505;28;20054;-57
2021/05/25 16:52:32;;;;;;;5.95;1.85;;;11.40;71.90;;;;;;5049405;28;20029;-60
2021/05/25 16:54:58;;;;;;;5.35;1.88;;;11.40;71.60;;;;;;5048453;28;20036;-58
2021/05/25 16:57:24;;;;;;;3.83;1.55;;;11.40;71.70;;;;;;5050055;28;20033;-57
2021/05/25 16:59:50;;;;;;;4.32;2.15;;;11.40;72.00;;;;;;5049722;28;20475;-61
2021/05/25 17:05:10;;;;;;;6.07;2.78;;;11.50;70.90;;;;;;5049494;28;20028;-58
2021/05/25 17:10:20;;;;;;;9.88;2.45;;;11.60;72.50;;;;;;5049588;28;20124;-59
2021/05/25 17:12:53;;;;;;;3.85;1.63;;;11.50;70.70;;;;;;5049318;28;20033;-61
2021/05/25 17:18:03;;;;;;;6.93;2.78;;;11.50;70.40;;;;;;5069461;28;20082;-61
2021/05/25 17:20:29;;;;;;;7.60;2.10;;;11.50;71.70;;;;;;5060318;28;20471;-61
2021/05/25 17:22:56;;;;;;;4.50;2.00;;;11.50;71.90;;;;;;5057908;28;20468;-61
2021/05/25 17:27:53;;;;;;;3.40;2.03;;;11.40;70.60;;;;;;5054975;28;20480;-60
2021/05/25 17:30:20;;;;;;;4.65;2.03;;;11.40;71.70;;;;;;5059760;28;20074;-60
2021/05/25 17:32:46;;;;;;;4.68;2.03;;;11.40;71.80;;;;;;5057247;28;20068;-60
2021/05/25 17:35:13;;;;;;;5.38;2.17;;;11.40;73.10;;;;;;5058662;28;20017;-59
2021/05/25 17:37:39;;;;;;;6.28;2.15;;;11.40;73.50;;;;;;5059768;28;20054;-60
2021/05/25 17:40:06;;;;;;;5.82;2.00;;;11.40;72.60;;;;;;5056401;28;20055;-60
2021/05/25 17:42:31;;;;;;;5.13;2.70;;;11.40;72.40;;;;;;5057301;28;20025;-57
2021/05/25 17:44:57;;;;;;;5.55;2.50;;;11.40;73.10;;;;;;5047910;28;20021;-57
2021/05/25 17:47:22;;;;;;;4.78;2.22;;;11.40;73.30;;;;;;5065453;28;20438;-63
2021/05/25 17:49:49;;;;;;;4.68;2.33;;;11.40;72.90;;;;;;5069053;28;20031;-58
2021/05/25 17:52:14;;;;;;;5.65;2.60;;;11.50;73.00;;;;;;5068554;28;20020;-57
2021/05/25 17:54:40;;;;;;;4.55;2.03;;;11.50;73.20;;;;;;5063606;28;20069;-59
2021/05/25 17:57:05;;;;;;;3.38;1.60;;;11.40;73.00;;;;;;5059133;28;20112;-59
2021/05/25 17:59:31;;;;;;;7.78;3.03;;;11.40;72.70;;;;;;5051938;28;20116;-60
2021/05/25 18:01:57;;;;;;;5.88;2.25;;;11.40;73.70;;;;;;5065307;28;20047;-57
2021/05/25 18:04:22;;;;;;;6.50;2.92;;;11.50;74.00;;;;;;5058413;28;20127;-59
2021/05/25 18:06:50;;;;;;;5.03;2.33;;;11.50;74.30;;;;;;5054111;28;20026;-58
2021/05/25 18:09:16;;;;;;;9.88;3.13;;;11.60;73.60;;;;;;5052067;28;20108;-59
2021/05/25 18:11:42;;;;;;;6.40;3.10;;;11.70;73.90;;;;;;5063598;28;20107;-59
2021/05/25 18:14:08;;;;;;;7.90;2.50;;;11.70;73.30;;;;;;5055305;28;20525;-59
2021/05/25 18:16:34;;;;;;;9.20;2.30;;;11.70;72.50;;;;;;5057781;28;20088;-59
2021/05/25 18:19:00;;;;;;;5.65;2.28;;;11.70;73.10;;;;;;5058413;28;20071;-59
2021/05/25 18:21:31;;;;;;;4.93;2.80;;;11.70;72.40;;;;;;5059256;28;20057;-59
2021/05/25 18:23:56;;;;;;;7.03;2.70;;;11.70;73.20;;;;;;5061880;28;20031;-59
2021/05/25 18:26:23;;;;;;;6.00;1.90;;;11.60;71.50;;;;;;5069387;28;20021;-59
2021/05/25 18:28:49;;;;;;;6.35;2.33;;;11.60;71.70;;;;;;5064908;28;20043;-59
2021/05/25 18:31:23;;;;;;;7.40;2.55;;;11.60;72.40;;;;;;5068927;28;20020;-58
2021/05/25 18:33:55;;;;;;;7.00;2.20;;;11.50;72.40;;;;;;5050447;28;20029;-60
2021/05/25 18:44:26;;;;;;;6.60;2.50;;;11.50;72.30;;;;;;5049207;28;20035;-59
2021/05/25 18:46:51;;;;;;;6.32;2.95;;;11.40;72.30;;;;;;5055118;28;20048;-59
2021/05/25 18:49:17;;;;;;;6.05;2.78;;;11.40;72.10;;;;;;5063856;28;20025;-59
2021/05/25 18:51:43;;;;;;;8.30;2.53;;;11.40;72.70;;;;;;5069064;28;20027;-58
2021/05/25 18:54:10;;;;;;;7.18;3.00;;;11.40;72.30;;;;;;5065186;28;20029;-59
2021/05/25 18:56:45;;;;;;;5.60;2.67;;;11.30;72.50;;;;;;5066064;28;20056;-59
2021/05/25 19:01:45;;;;;;;7.40;3.15;;;11.40;73.30;;;;;;5063194;28;20029;-59
2021/05/25 19:04:11;;;;;;;7.30;3.15;;;11.30;72.30;;;;;;5060956;28;20017;-59
2021/05/25 19:06:37;;;;;;;10.02;3.30;;;11.30;72.30;;;;;;5060875;28;20019;-59
2021/05/25 19:09:03;;;;;;;10.15;3.90;;;11.40;72.90;;;;;;5060740;28;20021;-58
2021/05/25 19:11:28;;;;;;;7.13;3.13;;;11.30;73.00;;;;;;5065907;28;20036;-59
2021/05/25 19:13:54;;;;;;;7.55;2.60;;;11.40;73.50;;;;;;5072531;28;20683;-59